sensor_id;sensor_type;location;lat;lon;timestamp;temperature;humidity
7196;DHT22;3639;51.308;5.624;2023-04-03T00:00:59;1.60;99.90
7196;DHT22;3639;51.308;5.624;2023-04-03T00:03:25;1.60;99.90
7196;DHT22;3639;51.308;5.624;2023-04-03T00:05:51;1.50;99.90
7196;DHT22;3639;51.308;5.624;2023-04-03T00:08:16;1.50;99.90
7196;DHT22;3639;51.308;5.624;2023-04-03T00:10:42;1.50;99.90
7196;DHT22;3639;51.308;5.624;2023-04-03T00:13:08;1.40;99.90
7196;DHT22;3639;51.308;5.624;2023-04-03T00:15:34;1.40;99.90
7196;DHT22;3639;51.308;5.624;2023-04-03T00:18:01;1.40;99.90
7196;DHT22;3639;51.308;5.624;2023-04-03T00:20:27;1.30;99.90
7196;DHT22;3639;51.308;5.624;2023-04-03T00:22:53;1.30;99.90
7196;DHT22;3639;51.308;5.624;2023-04-03T00:25:19;1.30;99.90
7196;DHT22;3639;51.308;5.624;2023-04-03T00:27:44;1.30;99.90
7196;DHT22;3639;51.308;5.624;2023-04-03T00:30:14;1.30;99.90
7196;DHT22;3639;51.308;5.624;2023-04-03T00:32:40;1.30;99.90
7196;DHT22;3639;51.308;5.624;2023-04-03T00:35:06;1.30;99.90
7196;DHT22;3639;51.308;5.624;2023-04-03T00:37:32;1.20;99.90
7196;DHT22;3639;51.308;5.624;2023-04-03T00:39:58;1.20;99.90
7196;DHT22;3639;51.308;5.624;2023-04-03T00:42:24;1.20;99.90
7196;DHT22;3639;51.308;5.624;2023-04-03T00:47:18;1.20;99.90
7196;DHT22;3639;51.308;5.624;2023-04-03T00:49:44;1.20;99.90
7196;DHT22;3639;51.308;5.624;2023-04-03T00:52:15;1.20;99.90
7196;DHT22;3639;51.308;5.624;2023-04-03T00:54:42;1.20;99.90
7196;DHT22;3639;51.308;5.624;2023-04-03T00:57:09;1.10;99.90
7196;DHT22;3639;51.308;5.624;2023-04-03T00:59:39;1.10;99.90
7196;DHT22;3639;51.308;5.624;2023-04-03T01:02:07;1.10;99.90
7196;DHT22;3639;51.308;5.624;2023-04-03T01:04:41;1.10;99.90
7196;DHT22;3639;51.308;5.624;2023-04-03T01:07:08;1.20;99.90
7196;DHT22;3639;51.308;5.624;2023-04-03T01:09:36;1.10;99.90
7196;DHT22;3639;51.308;5.624;2023-04-03T01:12:26;1.10;99.90
7196;DHT22;3639;51.308;5.624;2023-04-03T01:14:55;1.10;99.90
7196;DHT22;3639;51.308;5.624;2023-04-03T01:17:42;1.10;99.90
7196;DHT22;3639;51.308;5.624;2023-04-03T01:25:49;1.00;99.90
7196;DHT22;3639;51.308;5.624;2023-04-03T01:28:18;0.90;99.90
7196;DHT22;3639;51.308;5.624;2023-04-03T01:33:19;0.80;99.90
7196;DHT22;3639;51.308;5.624;2023-04-03T01:35:45;0.80;99.90
7196;DHT22;3639;51.308;5.624;2023-04-03T01:38:11;0.80;99.90
7196;DHT22;3639;51.308;5.624;2023-04-03T01:40:36;0.80;99.90
7196;DHT22;3639;51.308;5.624;2023-04-03T01:43:02;0.80;99.90
7196;DHT22;3639;51.308;5.624;2023-04-03T01:45:28;0.80;99.90
7196;DHT22;3639;51.308;5.624;2023-04-03T01:47:54;0.70;99.90
7196;DHT22;3639;51.308;5.624;2023-04-03T01:50:20;0.70;99.90
7196;DHT22;3639;51.308;5.624;2023-04-03T01:52:46;0.70;99.90
7196;DHT22;3639;51.308;5.624;2023-04-03T01:55:11;0.70;99.90
7196;DHT22;3639;51.308;5.624;2023-04-03T01:57:37;0.70;99.90
7196;DHT22;3639;51.308;5.624;2023-04-03T02:00:03;0.70;99.90
7196;DHT22;3639;51.308;5.624;2023-04-03T02:02:29;0.70;99.90
7196;DHT22;3639;51.308;5.624;2023-04-03T02:04:54;0.70;99.90
7196;DHT22;3639;51.308;5.624;2023-04-03T02:07:20;0.60;99.90
7196;DHT22;3639;51.308;5.624;2023-04-03T02:09:46;0.60;99.90
7196;DHT22;3639;51.308;5.624;2023-04-03T02:12:11;0.60;99.90
7196;DHT22;3639;51.308;5.624;2023-04-03T02:14:38;0.60;99.90
7196;DHT22;3639;51.308;5.624;2023-04-03T02:17:04;0.60;99.90
7196;DHT22;3639;51.308;5.624;2023-04-03T02:19:34;0.60;99.90
7196;DHT22;3639;51.308;5.624;2023-04-03T02:22:01;0.60;99.90
7196;DHT22;3639;51.308;5.624;2023-04-03T02:24:26;0.50;99.90
7196;DHT22;3639;51.308;5.624;2023-04-03T02:26:52;0.50;99.90
7196;DHT22;3639;51.308;5.624;2023-04-03T02:29:18;0.50;99.90
7196;DHT22;3639;51.308;5.624;2023-04-03T02:31:44;0.40;99.90
7196;DHT22;3639;51.308;5.624;2023-04-03T02:34:09;0.40;99.90
7196;DHT22;3639;51.308;5.624;2023-04-03T02:36:35;0.40;99.90
7196;DHT22;3639;51.308;5.624;2023-04-03T02:39:01;0.40;99.90
7196;DHT22;3639;51.308;5.624;2023-04-03T02:41:27;0.40;99.90
7196;DHT22;3639;51.308;5.624;2023-04-03T02:44:01;0.40;99.90
7196;DHT22;3639;51.308;5.624;2023-04-03T02:46:27;0.40;99.90
7196;DHT22;3639;51.308;5.624;2023-04-03T02:48:52;0.40;99.90
7196;DHT22;3639;51.308;5.624;2023-04-03T02:51:18;0.30;99.90
7196;DHT22;3639;51.308;5.624;2023-04-03T02:53:43;0.30;99.90
7196;DHT22;3639;51.308;5.624;2023-04-03T02:56:09;0.30;99.90
7196;DHT22;3639;51.308;5.624;2023-04-03T02:58:35;0.30;99.90
7196;DHT22;3639;51.308;5.624;2023-04-03T03:01:01;0.30;99.90
7196;DHT22;3639;51.308;5.624;2023-04-03T03:03:26;0.30;99.90
7196;DHT22;3639;51.308;5.624;2023-04-03T03:06:10;0.30;99.90
7196;DHT22;3639;51.308;5.624;2023-04-03T03:08:36;0.40;99.90
7196;DHT22;3639;51.308;5.624;2023-04-03T03:11:03;0.30;99.90
7196;DHT22;3639;51.308;5.624;2023-04-03T03:13:28;0.40;99.90
7196;DHT22;3639;51.308;5.624;2023-04-03T03:15:54;0.30;99.90
7196;DHT22;3639;51.308;5.624;2023-04-03T03:18:20;0.30;99.90
7196;DHT22;3639;51.308;5.624;2023-04-03T03:20:46;0.30;99.90
7196;DHT22;3639;51.308;5.624;2023-04-03T03:23:12;0.30;99.90
7196;DHT22;3639;51.308;5.624;2023-04-03T03:25:39;0.30;99.90
7196;DHT22;3639;51.308;5.624;2023-04-03T03:28:05;0.30;99.90
7196;DHT22;3639;51.308;5.624;2023-04-03T03:30:30;0.40;99.90
7196;DHT22;3639;51.308;5.624;2023-04-03T03:32:56;0.40;99.90
7196;DHT22;3639;51.308;5.624;2023-04-03T03:35:22;0.40;99.90
7196;DHT22;3639;51.308;5.624;2023-04-03T03:37:48;0.40;99.90
7196;DHT22;3639;51.308;5.624;2023-04-03T03:40:14;0.50;99.90
7196;DHT22;3639;51.308;5.624;2023-04-03T03:42:39;0.60;99.90
7196;DHT22;3639;51.308;5.624;2023-04-03T03:45:06;0.60;99.90
7196;DHT22;3639;51.308;5.624;2023-04-03T03:47:32;0.60;99.90
7196;DHT22;3639;51.308;5.624;2023-04-03T03:49:57;0.60;99.90
7196;DHT22;3639;51.308;5.624;2023-04-03T03:52:23;0.60;99.90
7196;DHT22;3639;51.308;5.624;2023-04-03T03:54:48;0.60;99.90
7196;DHT22;3639;51.308;5.624;2023-04-03T03:57:14;0.60;99.90
7196;DHT22;3639;51.308;5.624;2023-04-03T03:59:40;0.60;99.90
7196;DHT22;3639;51.308;5.624;2023-04-03T04:02:07;0.60;99.90
7196;DHT22;3639;51.308;5.624;2023-04-03T04:04:33;0.60;99.90
7196;DHT22;3639;51.308;5.624;2023-04-03T04:06:58;0.60;99.90
7196;DHT22;3639;51.308;5.624;2023-04-03T04:09:26;0.60;99.90
7196;DHT22;3639;51.308;5.624;2023-04-03T04:11:52;0.70;99.90
7196;DHT22;3639;51.308;5.624;2023-04-03T04:14:18;0.60;99.90
7196;DHT22;3639;51.308;5.624;2023-04-03T04:16:46;0.70;99.90
7196;DHT22;3639;51.308;5.624;2023-04-03T04:19:12;0.60;99.90
7196;DHT22;3639;51.308;5.624;2023-04-03T04:21:37;0.60;99.90
7196;DHT22;3639;51.308;5.624;2023-04-03T04:24:03;0.70;99.90
7196;DHT22;3639;51.308;5.624;2023-04-03T04:26:29;0.60;99.90
7196;DHT22;3639;51.308;5.624;2023-04-03T04:28:55;0.60;99.90
7196;DHT22;3639;51.308;5.624;2023-04-03T04:31:20;0.70;99.90
7196;DHT22;3639;51.308;5.624;2023-04-03T04:33:46;0.60;99.90
7196;DHT22;3639;51.308;5.624;2023-04-03T04:36:12;0.60;99.90
7196;DHT22;3639;51.308;5.624;2023-04-03T04:38:37;0.60;99.90
7196;DHT22;3639;51.308;5.624;2023-04-03T04:41:04;0.60;99.90
7196;DHT22;3639;51.308;5.624;2023-04-03T04:43:29;0.60;99.90
7196;DHT22;3639;51.308;5.624;2023-04-03T04:46:03;0.60;99.90
7196;DHT22;3639;51.308;5.624;2023-04-03T04:48:29;0.60;99.90
7196;DHT22;3639;51.308;5.624;2023-04-03T04:50:55;0.60;99.90
7196;DHT22;3639;51.308;5.624;2023-04-03T04:53:21;0.60;99.90
7196;DHT22;3639;51.308;5.624;2023-04-03T04:55:46;0.50;99.90
7196;DHT22;3639;51.308;5.624;2023-04-03T04:58:12;0.50;99.90
7196;DHT22;3639;51.308;5.624;2023-04-03T05:00:37;0.50;99.90
7196;DHT22;3639;51.308;5.624;2023-04-03T05:03:03;0.50;99.90
7196;DHT22;3639;51.308;5.624;2023-04-03T05:05:29;0.50;99.90
7196;DHT22;3639;51.308;5.624;2023-04-03T05:07:54;0.50;99.90
7196;DHT22;3639;51.308;5.624;2023-04-03T05:10:20;0.50;99.90
7196;DHT22;3639;51.308;5.624;2023-04-03T05:12:46;0.50;99.90
7196;DHT22;3639;51.308;5.624;2023-04-03T05:15:11;0.50;99.90
7196;DHT22;3639;51.308;5.624;2023-04-03T05:17:37;0.60;99.90
7196;DHT22;3639;51.308;5.624;2023-04-03T05:20:04;0.60;99.90
7196;DHT22;3639;51.308;5.624;2023-04-03T05:22:30;0.60;99.90
7196;DHT22;3639;51.308;5.624;2023-04-03T05:24:56;0.60;99.90
7196;DHT22;3639;51.308;5.624;2023-04-03T05:27:22;0.60;99.90
7196;DHT22;3639;51.308;5.624;2023-04-03T05:29:54;0.60;99.90
7196;DHT22;3639;51.308;5.624;2023-04-03T05:32:19;0.50;99.90
7196;DHT22;3639;51.308;5.624;2023-04-03T05:34:45;0.50;99.90
7196;DHT22;3639;51.308;5.624;2023-04-03T05:37:11;0.50;99.90
7196;DHT22;3639;51.308;5.624;2023-04-03T05:39:37;0.60;99.90
7196;DHT22;3639;51.308;5.624;2023-04-03T05:42:03;0.60;99.90
7196;DHT22;3639;51.308;5.624;2023-04-03T05:44:29;0.60;99.90
7196;DHT22;3639;51.308;5.624;2023-04-03T05:46:55;0.60;99.90
7196;DHT22;3639;51.308;5.624;2023-04-03T05:49:21;0.60;99.90
7196;DHT22;3639;51.308;5.624;2023-04-03T05:51:46;0.60;99.90
7196;DHT22;3639;51.308;5.624;2023-04-03T05:54:13;0.70;99.90
7196;DHT22;3639;51.308;5.624;2023-04-03T05:56:41;0.70;99.90
7196;DHT22;3639;51.308;5.624;2023-04-03T05:59:06;0.70;99.90
7196;DHT22;3639;51.308;5.624;2023-04-03T06:01:33;0.80;99.90
7196;DHT22;3639;51.308;5.624;2023-04-03T06:03:59;0.80;99.90
7196;DHT22;3639;51.308;5.624;2023-04-03T06:06:25;0.90;99.90
7196;DHT22;3639;51.308;5.624;2023-04-03T06:08:51;0.90;99.90
7196;DHT22;3639;51.308;5.624;2023-04-03T06:11:17;1.00;99.90
7196;DHT22;3639;51.308;5.624;2023-04-03T06:13:42;1.00;99.90
7196;DHT22;3639;51.308;5.624;2023-04-03T06:16:12;1.10;99.90
7196;DHT22;3639;51.308;5.624;2023-04-03T06:18:40;1.10;99.90
7196;DHT22;3639;51.308;5.624;2023-04-03T06:21:06;1.10;99.90
7196;DHT22;3639;51.308;5.624;2023-04-03T06:23:33;1.20;99.90
7196;DHT22;3639;51.308;5.624;2023-04-03T06:25:58;1.30;99.90
7196;DHT22;3639;51.308;5.624;2023-04-03T06:28:25;1.30;99.90
7196;DHT22;3639;51.308;5.624;2023-04-03T06:30:50;1.40;99.90
7196;DHT22;3639;51.308;5.624;2023-04-03T06:33:16;1.50;99.90
7196;DHT22;3639;51.308;5.624;2023-04-03T06:35:42;1.50;99.90
7196;DHT22;3639;51.308;5.624;2023-04-03T06:38:07;1.60;99.90
7196;DHT22;3639;51.308;5.624;2023-04-03T06:40:35;1.60;99.90
7196;DHT22;3639;51.308;5.624;2023-04-03T06:43:01;1.70;99.90
7196;DHT22;3639;51.308;5.624;2023-04-03T06:45:27;1.80;99.90
7196;DHT22;3639;51.308;5.624;2023-04-03T06:47:53;1.90;99.90
7196;DHT22;3639;51.308;5.624;2023-04-03T06:50:19;1.90;99.90
7196;DHT22;3639;51.308;5.624;2023-04-03T06:52:45;2.00;99.90
7196;DHT22;3639;51.308;5.624;2023-04-03T06:55:11;2.10;99.90
7196;DHT22;3639;51.308;5.624;2023-04-03T06:57:37;2.20;99.90
7196;DHT22;3639;51.308;5.624;2023-04-03T07:00:04;2.20;99.90
7196;DHT22;3639;51.308;5.624;2023-04-03T07:02:30;2.30;99.90
7196;DHT22;3639;51.308;5.624;2023-04-03T07:04:56;2.40;99.90
7196;DHT22;3639;51.308;5.624;2023-04-03T07:07:21;2.40;99.90
7196;DHT22;3639;51.308;5.624;2023-04-03T07:09:47;2.50;99.90
7196;DHT22;3639;51.308;5.624;2023-04-03T07:12:13;2.60;99.90
7196;DHT22;3639;51.308;5.624;2023-04-03T07:14:39;2.70;99.90
7196;DHT22;3639;51.308;5.624;2023-04-03T07:17:05;2.80;99.90
7196;DHT22;3639;51.308;5.624;2023-04-03T07:19:30;2.80;99.90
7196;DHT22;3639;51.308;5.624;2023-04-03T07:21:56;2.90;99.90
7196;DHT22;3639;51.308;5.624;2023-04-03T07:24:22;3.00;99.90
7196;DHT22;3639;51.308;5.624;2023-04-03T07:26:52;3.10;99.90
7196;DHT22;3639;51.308;5.624;2023-04-03T07:29:18;3.20;99.90
7196;DHT22;3639;51.308;5.624;2023-04-03T07:31:47;3.30;99.90
7196;DHT22;3639;51.308;5.624;2023-04-03T07:34:13;3.30;99.90
7196;DHT22;3639;51.308;5.624;2023-04-03T07:36:38;3.40;99.90
7196;DHT22;3639;51.308;5.624;2023-04-03T07:39:04;3.50;99.90
7196;DHT22;3639;51.308;5.624;2023-04-03T07:41:30;3.50;99.90
7196;DHT22;3639;51.308;5.624;2023-04-03T07:43:56;3.60;99.90
7196;DHT22;3639;51.308;5.624;2023-04-03T07:46:22;3.80;99.90
7196;DHT22;3639;51.308;5.624;2023-04-03T07:48:48;3.80;99.90
7196;DHT22;3639;51.308;5.624;2023-04-03T07:51:14;3.90;99.90
7196;DHT22;3639;51.308;5.624;2023-04-03T07:53:40;4.00;99.90
7196;DHT22;3639;51.308;5.624;2023-04-03T07:56:07;4.10;99.90
7196;DHT22;3639;51.308;5.624;2023-04-03T07:58:33;4.20;99.90
7196;DHT22;3639;51.308;5.624;2023-04-03T08:00:59;4.30;99.90
7196;DHT22;3639;51.308;5.624;2023-04-03T08:03:25;4.30;99.90
7196;DHT22;3639;51.308;5.624;2023-04-03T08:05:50;4.40;99.90
7196;DHT22;3639;51.308;5.624;2023-04-03T08:08:19;4.60;99.90
7196;DHT22;3639;51.308;5.624;2023-04-03T08:10:51;4.60;99.90
7196;DHT22;3639;51.308;5.624;2023-04-03T08:13:18;4.80;99.90
7196;DHT22;3639;51.308;5.624;2023-04-03T08:15:44;4.90;99.90
7196;DHT22;3639;51.308;5.624;2023-04-03T08:18:10;5.10;99.90
7196;DHT22;3639;51.308;5.624;2023-04-03T08:20:35;5.10;99.90
7196;DHT22;3639;51.308;5.624;2023-04-03T08:23:02;5.10;99.90
7196;DHT22;3639;51.308;5.624;2023-04-03T08:25:28;5.10;99.90
7196;DHT22;3639;51.308;5.624;2023-04-03T08:27:55;5.20;99.90
7196;DHT22;3639;51.308;5.624;2023-04-03T08:30:21;5.40;99.90
7196;DHT22;3639;51.308;5.624;2023-04-03T08:32:47;5.50;99.90
7196;DHT22;3639;51.308;5.624;2023-04-03T08:35:12;5.50;99.90
7196;DHT22;3639;51.308;5.624;2023-04-03T08:37:39;5.70;99.90
7196;DHT22;3639;51.308;5.624;2023-04-03T08:40:07;5.60;99.90
7196;DHT22;3639;51.308;5.624;2023-04-03T08:43:03;5.60;99.90
7196;DHT22;3639;51.308;5.624;2023-04-03T08:45:50;5.60;99.90
7196;DHT22;3639;51.308;5.624;2023-04-03T08:48:29;5.70;99.90
7196;DHT22;3639;51.308;5.624;2023-04-03T08:51:04;5.70;99.90
7196;DHT22;3639;51.308;5.624;2023-04-03T08:53:34;5.70;99.90
7196;DHT22;3639;51.308;5.624;2023-04-03T08:56:07;5.80;99.90
7196;DHT22;3639;51.308;5.624;2023-04-03T08:59:00;5.80;99.90
7196;DHT22;3639;51.308;5.624;2023-04-03T09:01:39;5.90;99.90
7196;DHT22;3639;51.308;5.624;2023-04-03T09:04:16;6.00;99.90
7196;DHT22;3639;51.308;5.624;2023-04-03T09:06:46;6.20;99.90
7196;DHT22;3639;51.308;5.624;2023-04-03T09:09:32;6.30;99.90
7196;DHT22;3639;51.308;5.624;2023-04-03T09:20:23;6.50;99.10
7196;DHT22;3639;51.308;5.624;2023-04-03T09:22:51;6.50;98.30
7196;DHT22;3639;51.308;5.624;2023-04-03T09:25:27;6.60;97.90
7196;DHT22;3639;51.308;5.624;2023-04-03T09:27:54;6.70;96.50
7196;DHT22;3639;51.308;5.624;2023-04-03T09:30:25;6.80;95.50
7196;DHT22;3639;51.308;5.624;2023-04-03T09:32:56;6.70;95.30
7196;DHT22;3639;51.308;5.624;2023-04-03T09:40:46;6.80;93.00
7196;DHT22;3639;51.308;5.624;2023-04-03T09:43:30;7.00;93.60
7196;DHT22;3639;51.308;5.624;2023-04-03T09:46:16;6.90;92.70
7196;DHT22;3639;51.308;5.624;2023-04-03T09:48:56;7.10;94.40
7196;DHT22;3639;51.308;5.624;2023-04-03T09:51:26;7.30;90.00
7196;DHT22;3639;51.308;5.624;2023-04-03T09:53:53;7.40;91.60
7196;DHT22;3639;51.308;5.624;2023-04-03T09:56:23;7.30;90.90
7196;DHT22;3639;51.308;5.624;2023-04-03T09:59:14;7.10;87.20
7196;DHT22;3639;51.308;5.624;2023-04-03T10:01:46;7.20;84.70
7196;DHT22;3639;51.308;5.624;2023-04-03T10:04:21;7.40;87.40
7196;DHT22;3639;51.308;5.624;2023-04-03T10:06:53;7.40;90.50
7196;DHT22;3639;51.308;5.624;2023-04-03T10:09:26;7.50;90.00
7196;DHT22;3639;51.308;5.624;2023-04-03T10:14:27;7.70;89.00
7196;DHT22;3639;51.308;5.624;2023-04-03T10:26:09;7.80;88.10
7196;DHT22;3639;51.308;5.624;2023-04-03T10:28:45;8.00;83.90
7196;DHT22;3639;51.308;5.624;2023-04-03T10:31:29;7.90;83.40
7196;DHT22;3639;51.308;5.624;2023-04-03T10:39:48;8.20;78.60
7196;DHT22;3639;51.308;5.624;2023-04-03T10:56:42;8.10;76.10
7196;DHT22;3639;51.308;5.624;2023-04-03T11:01:46;8.10;77.60
7196;DHT22;3639;51.308;5.624;2023-04-03T11:04:16;8.10;72.10
7196;DHT22;3639;51.308;5.624;2023-04-03T11:06:52;8.00;73.40
7196;DHT22;3639;51.308;5.624;2023-04-03T11:09:27;8.10;74.60
7196;DHT22;3639;51.308;5.624;2023-04-03T11:11:58;8.20;74.40
7196;DHT22;3639;51.308;5.624;2023-04-03T11:14:35;8.40;74.10
7196;DHT22;3639;51.308;5.624;2023-04-03T11:22:45;8.70;74.60
7196;DHT22;3639;51.308;5.624;2023-04-03T11:27:49;8.60;70.80
7196;DHT22;3639;51.308;5.624;2023-04-03T11:35:55;8.60;70.30
7196;DHT22;3639;51.308;5.624;2023-04-03T11:38:35;8.40;69.50
7196;DHT22;3639;51.308;5.624;2023-04-03T11:41:06;8.60;75.30
7196;DHT22;3639;51.308;5.624;2023-04-03T11:43:33;8.80;71.50
7196;DHT22;3639;51.308;5.624;2023-04-03T11:46:06;8.70;72.20
7196;DHT22;3639;51.308;5.624;2023-04-03T11:51:02;9.00;72.90
7196;DHT22;3639;51.308;5.624;2023-04-03T11:53:48;9.00;72.30
7196;DHT22;3639;51.308;5.624;2023-04-03T12:01:50;9.50;72.30
7196;DHT22;3639;51.308;5.624;2023-04-03T12:04:19;9.60;67.70
7196;DHT22;3639;51.308;5.624;2023-04-03T12:09:35;9.40;66.70
7196;DHT22;3639;51.308;5.624;2023-04-03T12:12:38;9.20;68.20
7196;DHT22;3639;51.308;5.624;2023-04-03T12:15:50;9.40;69.60
7196;DHT22;3639;51.308;5.624;2023-04-03T12:18:31;9.50;66.30
7196;DHT22;3639;51.308;5.624;2023-04-03T12:20:57;9.60;65.80
7196;DHT22;3639;51.308;5.624;2023-04-03T12:23:24;9.60;65.30
7196;DHT22;3639;51.308;5.624;2023-04-03T12:25:51;9.70;64.50
7196;DHT22;3639;51.308;5.624;2023-04-03T12:28:17;9.70;63.40
7196;DHT22;3639;51.308;5.624;2023-04-03T12:30:43;9.70;62.90
7196;DHT22;3639;51.308;5.624;2023-04-03T12:33:18;9.60;63.30
7196;DHT22;3639;51.308;5.624;2023-04-03T12:36:07;9.40;59.90
7196;DHT22;3639;51.308;5.624;2023-04-03T12:38:54;9.20;61.50
7196;DHT22;3639;51.308;5.624;2023-04-03T12:41:58;9.20;62.80
7196;DHT22;3639;51.308;5.624;2023-04-03T12:47:36;9.30;60.80
7196;DHT22;3639;51.308;5.624;2023-04-03T12:50:13;9.20;58.70
7196;DHT22;3639;51.308;5.624;2023-04-03T12:52:55;9.20;59.00
7196;DHT22;3639;51.308;5.624;2023-04-03T12:55:22;9.30;59.80
7196;DHT22;3639;51.308;5.624;2023-04-03T12:57:48;9.30;60.00
7196;DHT22;3639;51.308;5.624;2023-04-03T13:00:34;9.20;58.20
7196;DHT22;3639;51.308;5.624;2023-04-03T13:03:02;9.30;61.00
7196;DHT22;3639;51.308;5.624;2023-04-03T13:05:31;9.40;61.00
7196;DHT22;3639;51.308;5.624;2023-04-03T13:08:03;9.40;59.40
7196;DHT22;3639;51.308;5.624;2023-04-03T13:10:30;9.20;59.40
7196;DHT22;3639;51.308;5.624;2023-04-03T13:12:58;9.30;61.50
7196;DHT22;3639;51.308;5.624;2023-04-03T13:15:41;9.30;61.30
7196;DHT22;3639;51.308;5.624;2023-04-03T13:18:27;9.40;65.80
7196;DHT22;3639;51.308;5.624;2023-04-03T13:21:06;9.60;63.20
7196;DHT22;3639;51.308;5.624;2023-04-03T13:23:36;9.70;66.60
7196;DHT22;3639;51.308;5.624;2023-04-03T13:26:04;9.60;65.50
7196;DHT22;3639;51.308;5.624;2023-04-03T13:28:31;9.60;65.40
7196;DHT22;3639;51.308;5.624;2023-04-03T13:31:12;9.50;67.20
7196;DHT22;3639;51.308;5.624;2023-04-03T13:33:56;9.50;66.40
7196;DHT22;3639;51.308;5.624;2023-04-03T13:36:29;9.40;66.90
7196;DHT22;3639;51.308;5.624;2023-04-03T13:39:18;9.40;67.50
7196;DHT22;3639;51.308;5.624;2023-04-03T13:41:49;9.60;66.90
7196;DHT22;3639;51.308;5.624;2023-04-03T13:44:35;9.50;66.30
7196;DHT22;3639;51.308;5.624;2023-04-03T13:49:35;9.40;65.80
7196;DHT22;3639;51.308;5.624;2023-04-03T13:52:17;9.40;66.50
7196;DHT22;3639;51.308;5.624;2023-04-03T13:54:48;9.50;67.40
7196;DHT22;3639;51.308;5.624;2023-04-03T13:57:16;9.50;68.40
7196;DHT22;3639;51.308;5.624;2023-04-03T13:59:42;9.60;70.20
7196;DHT22;3639;51.308;5.624;2023-04-03T14:07:03;9.50;68.40
7196;DHT22;3639;51.308;5.624;2023-04-03T14:09:28;9.40;68.60
7196;DHT22;3639;51.308;5.624;2023-04-03T14:12:07;9.40;69.60
7196;DHT22;3639;51.308;5.624;2023-04-03T14:14:35;9.50;68.10
7196;DHT22;3639;51.308;5.624;2023-04-03T14:17:13;9.50;69.10
7196;DHT22;3639;51.308;5.624;2023-04-03T14:19:39;9.50;68.80
7196;DHT22;3639;51.308;5.624;2023-04-03T14:22:18;9.40;68.70
7196;DHT22;3639;51.308;5.624;2023-04-03T14:24:45;9.50;70.60
7196;DHT22;3639;51.308;5.624;2023-04-03T14:27:43;9.60;69.50
7196;DHT22;3639;51.308;5.624;2023-04-03T14:30:17;9.60;68.80
7196;DHT22;3639;51.308;5.624;2023-04-03T14:32:43;9.70;71.60
7196;DHT22;3639;51.308;5.624;2023-04-03T14:35:08;9.80;68.10
7196;DHT22;3639;51.308;5.624;2023-04-03T14:37:34;9.70;67.60
7196;DHT22;3639;51.308;5.624;2023-04-03T14:40:02;9.60;69.00
7196;DHT22;3639;51.308;5.624;2023-04-03T14:42:32;9.60;67.60
7196;DHT22;3639;51.308;5.624;2023-04-03T14:45:00;9.50;66.50
7196;DHT22;3639;51.308;5.624;2023-04-03T14:47:28;9.50;67.80
7196;DHT22;3639;51.308;5.624;2023-04-03T14:49:54;9.60;67.60
7196;DHT22;3639;51.308;5.624;2023-04-03T14:52:31;9.60;69.30
7196;DHT22;3639;51.308;5.624;2023-04-03T14:54:59;9.70;70.60
7196;DHT22;3639;51.308;5.624;2023-04-03T14:57:27;9.60;67.60
7196;DHT22;3639;51.308;5.624;2023-04-03T14:59:53;9.60;70.10
7196;DHT22;3639;51.308;5.624;2023-04-03T15:02:35;9.50;68.40
7196;DHT22;3639;51.308;5.624;2023-04-03T15:05:03;9.50;70.20
7196;DHT22;3639;51.308;5.624;2023-04-03T15:07:32;9.50;68.00
7196;DHT22;3639;51.308;5.624;2023-04-03T15:10:05;9.50;70.00
7196;DHT22;3639;51.308;5.624;2023-04-03T15:12:32;9.50;68.40
7196;DHT22;3639;51.308;5.624;2023-04-03T15:14:57;9.50;67.30
7196;DHT22;3639;51.308;5.624;2023-04-03T15:17:23;9.50;68.60
7196;DHT22;3639;51.308;5.624;2023-04-03T15:19:49;9.50;69.80
7196;DHT22;3639;51.308;5.624;2023-04-03T15:22:17;9.50;70.30
7196;DHT22;3639;51.308;5.624;2023-04-03T15:24:43;9.50;70.20
7196;DHT22;3639;51.308;5.624;2023-04-03T15:27:10;9.60;68.70
7196;DHT22;3639;51.308;5.624;2023-04-03T15:29:38;9.70;69.20
7196;DHT22;3639;51.308;5.624;2023-04-03T15:32:04;9.80;69.00
7196;DHT22;3639;51.308;5.624;2023-04-03T15:34:30;9.90;67.60
7196;DHT22;3639;51.308;5.624;2023-04-03T15:36:56;10.00;66.50
7196;DHT22;3639;51.308;5.624;2023-04-03T15:39:22;10.00;65.40
7196;DHT22;3639;51.308;5.624;2023-04-03T15:41:48;10.00;66.60
7196;DHT22;3639;51.308;5.624;2023-04-03T15:44:14;10.00;67.30
7196;DHT22;3639;51.308;5.624;2023-04-03T15:46:46;10.00;69.00
7196;DHT22;3639;51.308;5.624;2023-04-03T15:49:14;9.90;69.30
7196;DHT22;3639;51.308;5.624;2023-04-03T15:51:40;9.70;68.80
7196;DHT22;3639;51.308;5.624;2023-04-03T15:54:06;9.60;68.60
7196;DHT22;3639;51.308;5.624;2023-04-03T15:56:31;9.50;69.60
7196;DHT22;3639;51.308;5.624;2023-04-03T15:58:57;9.50;70.30
7196;DHT22;3639;51.308;5.624;2023-04-03T16:01:23;9.50;70.00
7196;DHT22;3639;51.308;5.624;2023-04-03T16:03:48;9.50;70.90
7196;DHT22;3639;51.308;5.624;2023-04-03T16:06:15;9.40;70.00
7196;DHT22;3639;51.308;5.624;2023-04-03T16:08:42;9.40;70.70
7196;DHT22;3639;51.308;5.624;2023-04-03T16:11:08;9.40;69.90
7196;DHT22;3639;51.308;5.624;2023-04-03T16:13:35;9.30;70.20
7196;DHT22;3639;51.308;5.624;2023-04-03T16:16:01;9.30;71.60
7196;DHT22;3639;51.308;5.624;2023-04-03T16:18:28;9.30;71.90
7196;DHT22;3639;51.308;5.624;2023-04-03T16:20:54;9.40;73.10
7196;DHT22;3639;51.308;5.624;2023-04-03T16:23:21;9.40;73.00
7196;DHT22;3639;51.308;5.624;2023-04-03T16:25:47;9.30;73.30
7196;DHT22;3639;51.308;5.624;2023-04-03T16:28:13;9.20;71.50
7196;DHT22;3639;51.308;5.624;2023-04-03T16:30:40;9.20;72.00
7196;DHT22;3639;51.308;5.624;2023-04-03T16:33:06;9.20;71.30
7196;DHT22;3639;51.308;5.624;2023-04-03T16:35:32;9.20;72.70
7196;DHT22;3639;51.308;5.624;2023-04-03T16:37:57;9.20;73.20
7196;DHT22;3639;51.308;5.624;2023-04-03T16:40:23;9.20;73.60
7196;DHT22;3639;51.308;5.624;2023-04-03T16:42:49;9.10;72.20
7196;DHT22;3639;51.308;5.624;2023-04-03T16:45:14;9.00;72.20
7196;DHT22;3639;51.308;5.624;2023-04-03T16:47:40;9.00;72.20
7196;DHT22;3639;51.308;5.624;2023-04-03T16:50:06;9.00;73.10
7196;DHT22;3639;51.308;5.624;2023-04-03T16:52:32;8.90;71.90
7196;DHT22;3639;51.308;5.624;2023-04-03T16:54:58;8.90;71.30
7196;DHT22;3639;51.308;5.624;2023-04-03T16:57:24;8.80;72.60
7196;DHT22;3639;51.308;5.624;2023-04-03T16:59:51;8.70;73.30
7196;DHT22;3639;51.308;5.624;2023-04-03T17:02:17;8.70;73.20
7196;DHT22;3639;51.308;5.624;2023-04-03T17:04:44;8.60;73.20
7196;DHT22;3639;51.308;5.624;2023-04-03T17:07:09;8.60;73.70
7196;DHT22;3639;51.308;5.624;2023-04-03T17:09:35;8.50;73.30
7196;DHT22;3639;51.308;5.624;2023-04-03T17:12:01;8.50;74.90
7196;DHT22;3639;51.308;5.624;2023-04-03T17:14:28;8.50;75.50
7196;DHT22;3639;51.308;5.624;2023-04-03T17:16:53;8.40;75.30
7196;DHT22;3639;51.308;5.624;2023-04-03T17:19:19;8.30;74.40
7196;DHT22;3639;51.308;5.624;2023-04-03T17:21:45;8.20;75.20
7196;DHT22;3639;51.308;5.624;2023-04-03T17:24:11;8.20;74.30
7196;DHT22;3639;51.308;5.624;2023-04-03T17:26:40;8.20;75.80
7196;DHT22;3639;51.308;5.624;2023-04-03T17:29:06;8.20;76.50
7196;DHT22;3639;51.308;5.624;2023-04-03T17:31:32;8.10;75.30
7196;DHT22;3639;51.308;5.624;2023-04-03T17:33:57;8.00;75.30
7196;DHT22;3639;51.308;5.624;2023-04-03T17:36:30;8.00;76.20
7196;DHT22;3639;51.308;5.624;2023-04-03T17:38:56;7.90;76.10
7196;DHT22;3639;51.308;5.624;2023-04-03T17:41:22;7.90;76.20
7196;DHT22;3639;51.308;5.624;2023-04-03T17:43:48;7.70;76.50
7196;DHT22;3639;51.308;5.624;2023-04-03T17:46:13;7.70;77.00
7196;DHT22;3639;51.308;5.624;2023-04-03T17:48:41;7.60;78.40
7196;DHT22;3639;51.308;5.624;2023-04-03T17:51:11;7.50;78.40
7196;DHT22;3639;51.308;5.624;2023-04-03T17:53:37;7.50;78.30
7196;DHT22;3639;51.308;5.624;2023-04-03T17:56:21;7.40;79.20
7196;DHT22;3639;51.308;5.624;2023-04-03T17:58:48;7.40;78.80
7196;DHT22;3639;51.308;5.624;2023-04-03T18:01:22;7.30;79.20